Glasgow, United Kingdom
Current Conditions -  °F | °C
As of 6:20 PM on Thursday 27 Nov 2014 (Local Time) from EGPF Reporting Station
Broken Clouds Broken Clouds  
Wind Chill:   Ceiling: 700
Heat Index:   Visibility: 4mi
Dew Point:   Wind: 5mph
Humidity: 100%   Direction: 60°ENE
Pressure: 29.56"   Gusts: NA
Location:  55.87°N, 4.26°W
Report Text: EGPF 271820Z AUTO 06004KT 6000 BKN007 08/08 Q1001
Loading
Personal Weather Stations






























Interactive Weather Map New forecast layout! Learn more

10-Day Weather Forecast

Advertisements
Track Severe Weather on mobile